sensor_id;sensor_type;location;lat;lon;timestamp;P1;durP1;ratioP1;P2;durP2;ratioP2
52470;SDS011;38382;53.160;7.026;2023-02-28T00:00:20;9.55;;;4.50;;
52470;SDS011;38382;53.160;7.026;2023-02-28T00:02:47;9.30;;;5.10;;
52470;SDS011;38382;53.160;7.026;2023-02-28T00:05:14;9.60;;;4.72;;
52470;SDS011;38382;53.160;7.026;2023-02-28T00:07:42;12.20;;;5.32;;
52470;SDS011;38382;53.160;7.026;2023-02-28T00:10:09;15.35;;;5.93;;
52470;SDS011;38382;53.160;7.026;2023-02-28T00:12:36;11.68;;;4.70;;
52470;SDS011;38382;53.160;7.026;2023-02-28T00:15:06;8.65;;;4.60;;
52470;SDS011;38382;53.160;7.026;2023-02-28T00:17:33;12.95;;;5.13;;
52470;SDS011;38382;53.160;7.026;2023-02-28T00:19:58;12.10;;;5.68;;
52470;SDS011;38382;53.160;7.026;2023-02-28T00:22:37;10.82;;;4.32;;
52470;SDS011;38382;53.160;7.026;2023-02-28T00:25:05;10.90;;;5.40;;
52470;SDS011;38382;53.160;7.026;2023-02-28T00:27:32;10.55;;;4.90;;
52470;SDS011;38382;53.160;7.026;2023-02-28T00:29:59;9.88;;;5.13;;
52470;SDS011;38382;53.160;7.026;2023-02-28T00:32:26;10.98;;;5.18;;
52470;SDS011;38382;53.160;7.026;2023-02-28T00:34:51;11.32;;;5.18;;
52470;SDS011;38382;53.160;7.026;2023-02-28T00:37:17;10.20;;;5.07;;
52470;SDS011;38382;53.160;7.026;2023-02-28T00:39:43;11.23;;;4.95;;
52470;SDS011;38382;53.160;7.026;2023-02-28T00:42:09;12.27;;;5.78;;
52470;SDS011;38382;53.160;7.026;2023-02-28T00:44:34;12.23;;;5.57;;
52470;SDS011;38382;53.160;7.026;2023-02-28T00:47:00;9.73;;;5.65;;
52470;SDS011;38382;53.160;7.026;2023-02-28T00:49:26;12.82;;;5.60;;
52470;SDS011;38382;53.160;7.026;2023-02-28T00:51:53;10.15;;;5.82;;
52470;SDS011;38382;53.160;7.026;2023-02-28T00:54:20;8.65;;;5.30;;
52470;SDS011;38382;53.160;7.026;2023-02-28T00:56:46;13.35;;;5.47;;
52470;SDS011;38382;53.160;7.026;2023-02-28T00:59:18;9.95;;;5.35;;
52470;SDS011;38382;53.160;7.026;2023-02-28T01:01:45;10.85;;;4.70;;
52470;SDS011;38382;53.160;7.026;2023-02-28T01:04:11;11.85;;;4.97;;
52470;SDS011;38382;53.160;7.026;2023-02-28T01:06:38;8.88;;;4.32;;
52470;SDS011;38382;53.160;7.026;2023-02-28T01:09:04;11.70;;;5.25;;
52470;SDS011;38382;53.160;7.026;2023-02-28T01:11:32;8.15;;;4.80;;
52470;SDS011;38382;53.160;7.026;2023-02-28T01:13:58;9.15;;;4.47;;
52470;SDS011;38382;53.160;7.026;2023-02-28T01:16:25;8.32;;;4.75;;
52470;SDS011;38382;53.160;7.026;2023-02-28T01:18:51;10.63;;;5.13;;
52470;SDS011;38382;53.160;7.026;2023-02-28T01:21:18;11.35;;;4.57;;
52470;SDS011;38382;53.160;7.026;2023-02-28T01:23:45;9.55;;;4.82;;
52470;SDS011;38382;53.160;7.026;2023-02-28T01:26:16;11.85;;;4.57;;
52470;SDS011;38382;53.160;7.026;2023-02-28T01:31:09;8.10;;;4.90;;
52470;SDS011;38382;53.160;7.026;2023-02-28T01:33:36;9.95;;;5.00;;
52470;SDS011;38382;53.160;7.026;2023-02-28T01:36:06;11.27;;;5.07;;
52470;SDS011;38382;53.160;7.026;2023-02-28T01:38:34;16.08;;;6.35;;
52470;SDS011;38382;53.160;7.026;2023-02-28T01:41:00;17.23;;;6.03;;
52470;SDS011;38382;53.160;7.026;2023-02-28T01:43:27;10.13;;;5.53;;
52470;SDS011;38382;53.160;7.026;2023-02-28T01:45:58;11.65;;;5.68;;
52470;SDS011;38382;53.160;7.026;2023-02-28T01:48:25;9.57;;;5.50;;
52470;SDS011;38382;53.160;7.026;2023-02-28T01:50:53;12.60;;;5.47;;
52470;SDS011;38382;53.160;7.026;2023-02-28T01:53:21;16.15;;;6.22;;
52470;SDS011;38382;53.160;7.026;2023-02-28T01:55:52;12.20;;;5.75;;
52470;SDS011;38382;53.160;7.026;2023-02-28T01:58:19;12.90;;;5.97;;
52470;SDS011;38382;53.160;7.026;2023-02-28T02:00:45;16.52;;;5.90;;
52470;SDS011;38382;53.160;7.026;2023-02-28T02:03:15;9.52;;;5.70;;
52470;SDS011;38382;53.160;7.026;2023-02-28T02:05:46;10.95;;;5.88;;
52470;SDS011;38382;53.160;7.026;2023-02-28T02:08:14;13.27;;;5.97;;
52470;SDS011;38382;53.160;7.026;2023-02-28T02:10:44;11.30;;;5.50;;
52470;SDS011;38382;53.160;7.026;2023-02-28T02:18:43;9.38;;;5.38;;
52470;SDS011;38382;53.160;7.026;2023-02-28T02:32:57;10.00;;;5.30;;
52470;SDS011;38382;53.160;7.026;2023-02-28T02:41:03;11.18;;;5.68;;
52470;SDS011;38382;53.160;7.026;2023-02-28T02:43:40;10.45;;;5.18;;
52470;SDS011;38382;53.160;7.026;2023-02-28T02:49:05;10.00;;;5.22;;
52470;SDS011;38382;53.160;7.026;2023-02-28T02:51:35;13.32;;;5.55;;
52470;SDS011;38382;53.160;7.026;2023-02-28T02:54:05;10.95;;;5.60;;
52470;SDS011;38382;53.160;7.026;2023-02-28T02:56:35;10.13;;;5.40;;
52470;SDS011;38382;53.160;7.026;2023-02-28T02:59:06;10.38;;;5.65;;
52470;SDS011;38382;53.160;7.026;2023-02-28T03:01:36;10.30;;;5.60;;
52470;SDS011;38382;53.160;7.026;2023-02-28T03:04:06;12.00;;;5.60;;
52470;SDS011;38382;53.160;7.026;2023-02-28T03:06:34;10.18;;;5.22;;
52470;SDS011;38382;53.160;7.026;2023-02-28T03:09:00;10.73;;;6.00;;
52470;SDS011;38382;53.160;7.026;2023-02-28T03:11:27;10.57;;;5.80;;
52470;SDS011;38382;53.160;7.026;2023-02-28T03:17:35;10.80;;;5.40;;
52470;SDS011;38382;53.160;7.026;2023-02-28T03:22:51;10.82;;;5.35;;
52470;SDS011;38382;53.160;7.026;2023-02-28T03:33:11;12.35;;;6.20;;
52470;SDS011;38382;53.160;7.026;2023-02-28T03:35:45;15.13;;;6.55;;
52470;SDS011;38382;53.160;7.026;2023-02-28T03:38:28;10.73;;;6.22;;
52470;SDS011;38382;53.160;7.026;2023-02-28T03:41:20;10.63;;;5.55;;
52470;SDS011;38382;53.160;7.026;2023-02-28T03:44:06;9.48;;;5.85;;
52470;SDS011;38382;53.160;7.026;2023-02-28T03:46:41;10.52;;;5.60;;
52470;SDS011;38382;53.160;7.026;2023-02-28T03:49:26;10.68;;;5.72;;
52470;SDS011;38382;53.160;7.026;2023-02-28T03:52:00;9.80;;;5.53;;
52470;SDS011;38382;53.160;7.026;2023-02-28T03:54:33;10.65;;;5.60;;
52470;SDS011;38382;53.160;7.026;2023-02-28T03:57:04;10.38;;;5.72;;
52470;SDS011;38382;53.160;7.026;2023-02-28T03:59:39;12.38;;;5.38;;
52470;SDS011;38382;53.160;7.026;2023-02-28T04:02:09;8.77;;;4.88;;
52470;SDS011;38382;53.160;7.026;2023-02-28T04:04:35;9.98;;;5.28;;
52470;SDS011;38382;53.160;7.026;2023-02-28T04:07:03;9.35;;;5.15;;
52470;SDS011;38382;53.160;7.026;2023-02-28T04:09:31;11.48;;;6.07;;
52470;SDS011;38382;53.160;7.026;2023-02-28T04:11:57;9.93;;;5.53;;
52470;SDS011;38382;53.160;7.026;2023-02-28T04:14:23;13.38;;;5.63;;
52470;SDS011;38382;53.160;7.026;2023-02-28T04:16:49;9.90;;;5.32;;
52470;SDS011;38382;53.160;7.026;2023-02-28T04:19:16;12.93;;;5.68;;
52470;SDS011;38382;53.160;7.026;2023-02-28T04:21:46;12.48;;;5.80;;
52470;SDS011;38382;53.160;7.026;2023-02-28T04:24:20;8.77;;;5.40;;
52470;SDS011;38382;53.160;7.026;2023-02-28T04:26:48;10.73;;;5.60;;
52470;SDS011;38382;53.160;7.026;2023-02-28T04:29:26;10.25;;;5.95;;
52470;SDS011;38382;53.160;7.026;2023-02-28T04:31:57;10.55;;;6.50;;
52470;SDS011;38382;53.160;7.026;2023-02-28T04:34:24;14.05;;;7.57;;
52470;SDS011;38382;53.160;7.026;2023-02-28T04:36:51;13.90;;;6.63;;
52470;SDS011;38382;53.160;7.026;2023-02-28T04:39:19;11.82;;;6.63;;
52470;SDS011;38382;53.160;7.026;2023-02-28T04:41:46;9.98;;;5.72;;
52470;SDS011;38382;53.160;7.026;2023-02-28T04:44:12;11.75;;;6.68;;
52470;SDS011;38382;53.160;7.026;2023-02-28T04:46:38;13.18;;;6.18;;
52470;SDS011;38382;53.160;7.026;2023-02-28T04:49:04;11.00;;;5.95;;
52470;SDS011;38382;53.160;7.026;2023-02-28T04:51:30;12.13;;;6.50;;
52470;SDS011;38382;53.160;7.026;2023-02-28T04:53:56;12.23;;;6.05;;
52470;SDS011;38382;53.160;7.026;2023-02-28T04:56:22;13.05;;;6.15;;
52470;SDS011;38382;53.160;7.026;2023-02-28T04:58:48;10.52;;;6.28;;
52470;SDS011;38382;53.160;7.026;2023-02-28T05:01:17;10.90;;;6.00;;
52470;SDS011;38382;53.160;7.026;2023-02-28T05:03:44;11.50;;;5.63;;
52470;SDS011;38382;53.160;7.026;2023-02-28T05:06:10;9.80;;;6.00;;
52470;SDS011;38382;53.160;7.026;2023-02-28T05:08:40;11.18;;;6.20;;
52470;SDS011;38382;53.160;7.026;2023-02-28T05:11:07;11.68;;;6.00;;
52470;SDS011;38382;53.160;7.026;2023-02-28T05:13:40;14.85;;;6.22;;
52470;SDS011;38382;53.160;7.026;2023-02-28T05:16:06;11.68;;;6.57;;
52470;SDS011;38382;53.160;7.026;2023-02-28T05:18:37;11.68;;;6.35;;
52470;SDS011;38382;53.160;7.026;2023-02-28T05:23:57;11.98;;;6.93;;
52470;SDS011;38382;53.160;7.026;2023-02-28T05:26:27;12.57;;;6.53;;
52470;SDS011;38382;53.160;7.026;2023-02-28T05:28:53;13.30;;;7.10;;
52470;SDS011;38382;53.160;7.026;2023-02-28T05:31:28;10.95;;;6.82;;
52470;SDS011;38382;53.160;7.026;2023-02-28T05:33:54;11.88;;;7.68;;
52470;SDS011;38382;53.160;7.026;2023-02-28T05:36:23;15.00;;;7.38;;
52470;SDS011;38382;53.160;7.026;2023-02-28T05:38:52;13.73;;;7.55;;
52470;SDS011;38382;53.160;7.026;2023-02-28T05:41:18;13.95;;;7.85;;
52470;SDS011;38382;53.160;7.026;2023-02-28T05:43:45;14.30;;;7.82;;
52470;SDS011;38382;53.160;7.026;2023-02-28T05:46:12;12.95;;;7.25;;
52470;SDS011;38382;53.160;7.026;2023-02-28T05:48:45;12.77;;;7.20;;
52470;SDS011;38382;53.160;7.026;2023-02-28T05:51:12;13.60;;;7.45;;
52470;SDS011;38382;53.160;7.026;2023-02-28T05:53:38;14.40;;;7.85;;
52470;SDS011;38382;53.160;7.026;2023-02-28T05:56:04;13.38;;;8.02;;
52470;SDS011;38382;53.160;7.026;2023-02-28T05:58:35;18.55;;;8.77;;
52470;SDS011;38382;53.160;7.026;2023-02-28T06:01:18;15.93;;;8.05;;
52470;SDS011;38382;53.160;7.026;2023-02-28T06:03:46;13.80;;;8.38;;
52470;SDS011;38382;53.160;7.026;2023-02-28T06:06:17;16.15;;;8.43;;
52470;SDS011;38382;53.160;7.026;2023-02-28T06:08:43;16.50;;;9.13;;
52470;SDS011;38382;53.160;7.026;2023-02-28T06:11:09;16.02;;;9.30;;
52470;SDS011;38382;53.160;7.026;2023-02-28T06:13:35;15.88;;;9.13;;
52470;SDS011;38382;53.160;7.026;2023-02-28T06:16:01;16.33;;;8.50;;
52470;SDS011;38382;53.160;7.026;2023-02-28T06:18:27;18.23;;;9.20;;
52470;SDS011;38382;53.160;7.026;2023-02-28T06:28:17;16.40;;;9.32;;
52470;SDS011;38382;53.160;7.026;2023-02-28T06:30:43;16.98;;;8.70;;
52470;SDS011;38382;53.160;7.026;2023-02-28T06:33:09;17.02;;;8.85;;
52470;SDS011;38382;53.160;7.026;2023-02-28T06:35:35;15.38;;;8.60;;
52470;SDS011;38382;53.160;7.026;2023-02-28T06:38:03;18.20;;;9.00;;
52470;SDS011;38382;53.160;7.026;2023-02-28T06:40:32;14.75;;;7.70;;
52470;SDS011;38382;53.160;7.026;2023-02-28T06:43:00;24.02;;;9.52;;
52470;SDS011;38382;53.160;7.026;2023-02-28T06:45:25;14.85;;;8.45;;
52470;SDS011;38382;53.160;7.026;2023-02-28T06:47:51;15.02;;;8.13;;
52470;SDS011;38382;53.160;7.026;2023-02-28T06:50:18;13.30;;;8.27;;
52470;SDS011;38382;53.160;7.026;2023-02-28T06:52:46;13.38;;;8.20;;
52470;SDS011;38382;53.160;7.026;2023-02-28T06:55:12;16.13;;;8.68;;
52470;SDS011;38382;53.160;7.026;2023-02-28T06:57:38;15.57;;;8.40;;
52470;SDS011;38382;53.160;7.026;2023-02-28T07:00:05;16.13;;;9.18;;
52470;SDS011;38382;53.160;7.026;2023-02-28T07:02:33;16.77;;;10.20;;
52470;SDS011;38382;53.160;7.026;2023-02-28T07:05:00;17.55;;;9.50;;
52470;SDS011;38382;53.160;7.026;2023-02-28T07:07:26;18.27;;;10.50;;
52470;SDS011;38382;53.160;7.026;2023-02-28T07:09:51;19.90;;;9.70;;
52470;SDS011;38382;53.160;7.026;2023-02-28T07:12:17;18.42;;;10.20;;
52470;SDS011;38382;53.160;7.026;2023-02-28T07:15:04;23.38;;;11.15;;
52470;SDS011;38382;53.160;7.026;2023-02-28T07:18:07;17.08;;;9.90;;
52470;SDS011;38382;53.160;7.026;2023-02-28T07:20:45;16.05;;;10.23;;
52470;SDS011;38382;53.160;7.026;2023-02-28T07:23:11;22.80;;;11.05;;
52470;SDS011;38382;53.160;7.026;2023-02-28T07:25:36;19.17;;;10.68;;
52470;SDS011;38382;53.160;7.026;2023-02-28T07:28:02;15.63;;;9.40;;
52470;SDS011;38382;53.160;7.026;2023-02-28T07:30:28;18.35;;;10.40;;
52470;SDS011;38382;53.160;7.026;2023-02-28T07:32:54;19.25;;;9.85;;
52470;SDS011;38382;53.160;7.026;2023-02-28T07:35:21;17.65;;;10.70;;
52470;SDS011;38382;53.160;7.026;2023-02-28T07:37:47;20.13;;;10.50;;
52470;SDS011;38382;53.160;7.026;2023-02-28T07:40:13;19.85;;;10.63;;
52470;SDS011;38382;53.160;7.026;2023-02-28T07:42:40;16.25;;;9.82;;
52470;SDS011;38382;53.160;7.026;2023-02-28T07:45:07;22.88;;;10.38;;
52470;SDS011;38382;53.160;7.026;2023-02-28T07:47:36;21.13;;;10.40;;
52470;SDS011;38382;53.160;7.026;2023-02-28T07:50:03;20.45;;;10.90;;
52470;SDS011;38382;53.160;7.026;2023-02-28T07:52:30;20.23;;;10.30;;
52470;SDS011;38382;53.160;7.026;2023-02-28T07:54:57;16.48;;;9.82;;
52470;SDS011;38382;53.160;7.026;2023-02-28T07:57:22;18.08;;;10.20;;
52470;SDS011;38382;53.160;7.026;2023-02-28T07:59:48;18.55;;;9.90;;
52470;SDS011;38382;53.160;7.026;2023-02-28T08:02:15;18.48;;;10.05;;
52470;SDS011;38382;53.160;7.026;2023-02-28T08:04:42;19.10;;;9.40;;
52470;SDS011;38382;53.160;7.026;2023-02-28T08:07:08;16.00;;;9.00;;
52470;SDS011;38382;53.160;7.026;2023-02-28T08:09:34;17.52;;;9.40;;
52470;SDS011;38382;53.160;7.026;2023-02-28T08:12:00;17.20;;;9.77;;
52470;SDS011;38382;53.160;7.026;2023-02-28T08:14:26;20.02;;;9.70;;
52470;SDS011;38382;53.160;7.026;2023-02-28T08:16:52;17.73;;;9.77;;
52470;SDS011;38382;53.160;7.026;2023-02-28T08:19:17;17.35;;;10.05;;
52470;SDS011;38382;53.160;7.026;2023-02-28T08:21:43;18.63;;;9.68;;
52470;SDS011;38382;53.160;7.026;2023-02-28T08:24:09;17.23;;;9.75;;
52470;SDS011;38382;53.160;7.026;2023-02-28T08:26:35;18.10;;;8.73;;
52470;SDS011;38382;53.160;7.026;2023-02-28T08:29:00;16.80;;;9.52;;
52470;SDS011;38382;53.160;7.026;2023-02-28T08:31:26;19.88;;;10.77;;
52470;SDS011;38382;53.160;7.026;2023-02-28T08:33:52;15.98;;;9.77;;
52470;SDS011;38382;53.160;7.026;2023-02-28T08:36:20;17.73;;;10.35;;
52470;SDS011;38382;53.160;7.026;2023-02-28T08:38:46;16.50;;;10.40;;
52470;SDS011;38382;53.160;7.026;2023-02-28T08:41:12;20.92;;;11.30;;
52470;SDS011;38382;53.160;7.026;2023-02-28T08:43:38;19.48;;;10.77;;
52470;SDS011;38382;53.160;7.026;2023-02-28T08:46:05;17.00;;;10.20;;
52470;SDS011;38382;53.160;7.026;2023-02-28T08:48:33;18.85;;;10.40;;
52470;SDS011;38382;53.160;7.026;2023-02-28T08:51:07;15.82;;;9.45;;
52470;SDS011;38382;53.160;7.026;2023-02-28T08:53:35;17.58;;;9.55;;
52470;SDS011;38382;53.160;7.026;2023-02-28T08:56:09;18.25;;;9.77;;
52470;SDS011;38382;53.160;7.026;2023-02-28T08:58:38;21.08;;;10.95;;
52470;SDS011;38382;53.160;7.026;2023-02-28T09:01:56;15.85;;;9.70;;
52470;SDS011;38382;53.160;7.026;2023-02-28T09:04:22;18.40;;;11.05;;
52470;SDS011;38382;53.160;7.026;2023-02-28T09:06:48;17.95;;;10.95;;
52470;SDS011;38382;53.160;7.026;2023-02-28T09:09:14;18.75;;;9.95;;
52470;SDS011;38382;53.160;7.026;2023-02-28T09:12:33;15.88;;;10.10;;
52470;SDS011;38382;53.160;7.026;2023-02-28T09:15:59;20.58;;;10.50;;
52470;SDS011;38382;53.160;7.026;2023-02-28T09:18:27;17.60;;;10.48;;
52470;SDS011;38382;53.160;7.026;2023-02-28T09:20:53;17.48;;;10.13;;
52470;SDS011;38382;53.160;7.026;2023-02-28T09:23:19;16.05;;;10.10;;
52470;SDS011;38382;53.160;7.026;2023-02-28T09:25:50;19.50;;;9.52;;
52470;SDS011;38382;53.160;7.026;2023-02-28T09:28:17;17.67;;;9.50;;
52470;SDS011;38382;53.160;7.026;2023-02-28T09:30:44;17.40;;;9.32;;
52470;SDS011;38382;53.160;7.026;2023-02-28T09:33:13;17.80;;;10.52;;
52470;SDS011;38382;53.160;7.026;2023-02-28T09:35:39;16.02;;;9.48;;
52470;SDS011;38382;53.160;7.026;2023-02-28T09:38:05;18.15;;;10.13;;
52470;SDS011;38382;53.160;7.026;2023-02-28T09:40:34;16.20;;;10.07;;
52470;SDS011;38382;53.160;7.026;2023-02-28T09:43:02;17.02;;;9.23;;
52470;SDS011;38382;53.160;7.026;2023-02-28T09:45:35;19.23;;;9.50;;
52470;SDS011;38382;53.160;7.026;2023-02-28T09:48:14;18.65;;;9.63;;
52470;SDS011;38382;53.160;7.026;2023-02-28T09:50:51;15.20;;;10.10;;
52470;SDS011;38382;53.160;7.026;2023-02-28T09:53:22;17.60;;;10.45;;
52470;SDS011;38382;53.160;7.026;2023-02-28T09:55:57;20.08;;;10.88;;
52470;SDS011;38382;53.160;7.026;2023-02-28T09:58:29;17.27;;;10.93;;
52470;SDS011;38382;53.160;7.026;2023-02-28T10:01:09;19.20;;;10.52;;
52470;SDS011;38382;53.160;7.026;2023-02-28T10:07:00;16.60;;;10.45;;
52470;SDS011;38382;53.160;7.026;2023-02-28T10:09:44;14.88;;;9.93;;
52470;SDS011;38382;53.160;7.026;2023-02-28T10:12:15;15.73;;;9.73;;
52470;SDS011;38382;53.160;7.026;2023-02-28T10:14:44;15.48;;;9.60;;
52470;SDS011;38382;53.160;7.026;2023-02-28T10:17:13;17.58;;;9.98;;
52470;SDS011;38382;53.160;7.026;2023-02-28T10:19:53;16.10;;;9.18;;
52470;SDS011;38382;53.160;7.026;2023-02-28T10:22:49;16.50;;;8.95;;
52470;SDS011;38382;53.160;7.026;2023-02-28T10:25:33;16.38;;;9.07;;
52470;SDS011;38382;53.160;7.026;2023-02-28T10:28:11;14.38;;;8.93;;
52470;SDS011;38382;53.160;7.026;2023-02-28T10:30:40;15.40;;;9.40;;
52470;SDS011;38382;53.160;7.026;2023-02-28T10:33:15;14.57;;;8.82;;
52470;SDS011;38382;53.160;7.026;2023-02-28T10:35:44;15.15;;;9.05;;
52470;SDS011;38382;53.160;7.026;2023-02-28T10:38:14;15.25;;;8.25;;
52470;SDS011;38382;53.160;7.026;2023-02-28T10:40:42;12.43;;;7.95;;
52470;SDS011;38382;53.160;7.026;2023-02-28T10:45:51;14.77;;;8.40;;
52470;SDS011;38382;53.160;7.026;2023-02-28T10:58:25;14.27;;;8.68;;
52470;SDS011;38382;53.160;7.026;2023-02-28T11:00:56;14.27;;;8.68;;
52470;SDS011;38382;53.160;7.026;2023-02-28T11:03:25;12.93;;;7.90;;
52470;SDS011;38382;53.160;7.026;2023-02-28T11:05:56;14.07;;;8.10;;
52470;SDS011;38382;53.160;7.026;2023-02-28T11:08:22;13.43;;;8.23;;
52470;SDS011;38382;53.160;7.026;2023-02-28T11:10:59;14.35;;;8.32;;
52470;SDS011;38382;53.160;7.026;2023-02-28T11:13:33;14.25;;;8.20;;
52470;SDS011;38382;53.160;7.026;2023-02-28T11:16:02;15.57;;;9.10;;
52470;SDS011;38382;53.160;7.026;2023-02-28T11:18:53;20.10;;;9.45;;
52470;SDS011;38382;53.160;7.026;2023-02-28T11:21:20;12.38;;;8.82;;
52470;SDS011;38382;53.160;7.026;2023-02-28T11:23:46;14.82;;;8.98;;
52470;SDS011;38382;53.160;7.026;2023-02-28T11:26:14;11.82;;;7.85;;
52470;SDS011;38382;53.160;7.026;2023-02-28T11:28:41;10.77;;;6.57;;
52470;SDS011;38382;53.160;7.026;2023-02-28T11:33:45;9.05;;;6.28;;
52470;SDS011;38382;53.160;7.026;2023-02-28T11:36:25;8.55;;;5.53;;
52470;SDS011;38382;53.160;7.026;2023-02-28T11:38:54;8.27;;;5.22;;
52470;SDS011;38382;53.160;7.026;2023-02-28T11:52:57;9.75;;;5.57;;
52470;SDS011;38382;53.160;7.026;2023-02-28T11:55:39;9.68;;;6.00;;
52470;SDS011;38382;53.160;7.026;2023-02-28T12:06:31;11.40;;;6.07;;
52470;SDS011;38382;53.160;7.026;2023-02-28T12:11:59;12.85;;;6.18;;
52470;SDS011;38382;53.160;7.026;2023-02-28T12:19:48;8.38;;;6.05;;
52470;SDS011;38382;53.160;7.026;2023-02-28T12:28:21;8.88;;;5.55;;
52470;SDS011;38382;53.160;7.026;2023-02-28T12:30:58;11.35;;;5.50;;
52470;SDS011;38382;53.160;7.026;2023-02-28T12:33:48;7.95;;;5.15;;
52470;SDS011;38382;53.160;7.026;2023-02-28T12:36:18;10.05;;;5.22;;
52470;SDS011;38382;53.160;7.026;2023-02-28T12:38:54;9.02;;;6.20;;
52470;SDS011;38382;53.160;7.026;2023-02-28T12:41:24;7.70;;;5.40;;
52470;SDS011;38382;53.160;7.026;2023-02-28T12:43:55;10.07;;;5.40;;
52470;SDS011;38382;53.160;7.026;2023-02-28T12:46:30;7.35;;;5.32;;
52470;SDS011;38382;53.160;7.026;2023-02-28T12:49:05;8.48;;;5.30;;
52470;SDS011;38382;53.160;7.026;2023-02-28T12:51:35;9.27;;;5.45;;
52470;SDS011;38382;53.160;7.026;2023-02-28T12:59:37;8.45;;;5.80;;
52470;SDS011;38382;53.160;7.026;2023-02-28T13:02:24;10.15;;;5.88;;
52470;SDS011;38382;53.160;7.026;2023-02-28T13:10:24;12.13;;;7.07;;
52470;SDS011;38382;53.160;7.026;2023-02-28T13:12:52;10.13;;;6.82;;
52470;SDS011;38382;53.160;7.026;2023-02-28T13:15:24;10.13;;;6.80;;
52470;SDS011;38382;53.160;7.026;2023-02-28T13:17:54;10.35;;;6.90;;
52470;SDS011;38382;53.160;7.026;2023-02-28T13:20:27;11.05;;;7.18;;
52470;SDS011;38382;53.160;7.026;2023-02-28T13:22:59;11.63;;;7.40;;
52470;SDS011;38382;53.160;7.026;2023-02-28T13:27:58;9.45;;;7.40;;
52470;SDS011;38382;53.160;7.026;2023-02-28T13:36:01;13.07;;;7.05;;
52470;SDS011;38382;53.160;7.026;2023-02-28T13:38:56;10.95;;;7.03;;
52470;SDS011;38382;53.160;7.026;2023-02-28T13:44:02;9.48;;;6.78;;
52470;SDS011;38382;53.160;7.026;2023-02-28T13:46:28;8.98;;;6.20;;
52470;SDS011;38382;53.160;7.026;2023-02-28T13:48:54;9.48;;;5.90;;
52470;SDS011;38382;53.160;7.026;2023-02-28T13:51:53;10.05;;;6.32;;
52470;SDS011;38382;53.160;7.026;2023-02-28T14:02:11;8.68;;;5.85;;
52470;SDS011;38382;53.160;7.026;2023-02-28T14:05:11;9.95;;;6.60;;
52470;SDS011;38382;53.160;7.026;2023-02-28T14:07:58;9.77;;;6.05;;
52470;SDS011;38382;53.160;7.026;2023-02-28T14:10:30;9.93;;;6.18;;
52470;SDS011;38382;53.160;7.026;2023-02-28T14:13:01;10.40;;;7.45;;
52470;SDS011;38382;53.160;7.026;2023-02-28T14:16:00;10.88;;;6.63;;
52470;SDS011;38382;53.160;7.026;2023-02-28T14:24:16;7.15;;;5.57;;
52470;SDS011;38382;53.160;7.026;2023-02-28T14:35:13;10.57;;;5.90;;
52470;SDS011;38382;53.160;7.026;2023-02-28T14:37:42;9.25;;;5.60;;
52470;SDS011;38382;53.160;7.026;2023-02-28T14:40:14;9.50;;;5.20;;
52470;SDS011;38382;53.160;7.026;2023-02-28T14:42:46;7.75;;;5.68;;
52470;SDS011;38382;53.160;7.026;2023-02-28T14:45:20;8.63;;;5.90;;
52470;SDS011;38382;53.160;7.026;2023-02-28T14:47:47;9.27;;;6.07;;
52470;SDS011;38382;53.160;7.026;2023-02-28T14:50:22;10.35;;;6.40;;
52470;SDS011;38382;53.160;7.026;2023-02-28T14:52:52;9.10;;;6.35;;
52470;SDS011;38382;53.160;7.026;2023-02-28T14:55:18;9.65;;;6.25;;
52470;SDS011;38382;53.160;7.026;2023-02-28T14:58:04;8.27;;;6.13;;
52470;SDS011;38382;53.160;7.026;2023-02-28T15:00:49;8.07;;;6.13;;
52470;SDS011;38382;53.160;7.026;2023-02-28T15:03:39;8.02;;;5.88;;
52470;SDS011;38382;53.160;7.026;2023-02-28T15:06:05;8.65;;;5.88;;
52470;SDS011;38382;53.160;7.026;2023-02-28T15:08:43;9.52;;;6.28;;
52470;SDS011;38382;53.160;7.026;2023-02-28T15:11:13;9.90;;;6.10;;
52470;SDS011;38382;53.160;7.026;2023-02-28T15:13:42;8.18;;;5.88;;
52470;SDS011;38382;53.160;7.026;2023-02-28T15:16:18;7.70;;;5.47;;
52470;SDS011;38382;53.160;7.026;2023-02-28T15:21:25;9.55;;;6.03;;
52470;SDS011;38382;53.160;7.026;2023-02-28T15:24:02;9.85;;;5.72;;
52470;SDS011;38382;53.160;7.026;2023-02-28T15:26:42;8.07;;;5.47;;
52470;SDS011;38382;53.160;7.026;2023-02-28T15:29:20;9.57;;;6.13;;
52470;SDS011;38382;53.160;7.026;2023-02-28T15:31:49;8.00;;;6.10;;
52470;SDS011;38382;53.160;7.026;2023-02-28T15:34:20;8.68;;;5.97;;
52470;SDS011;38382;53.160;7.026;2023-02-28T15:40:17;9.88;;;5.80;;
52470;SDS011;38382;53.160;7.026;2023-02-28T15:43:16;8.50;;;5.72;;
52470;SDS011;38382;53.160;7.026;2023-02-28T15:48:18;8.65;;;5.57;;
52470;SDS011;38382;53.160;7.026;2023-02-28T15:50:56;7.95;;;5.75;;
52470;SDS011;38382;53.160;7.026;2023-02-28T15:53:36;10.18;;;5.72;;
52470;SDS011;38382;53.160;7.026;2023-02-28T15:56:32;8.30;;;5.63;;
52470;SDS011;38382;53.160;7.026;2023-02-28T15:59:29;8.32;;;5.85;;
52470;SDS011;38382;53.160;7.026;2023-02-28T16:02:11;9.30;;;6.93;;
52470;SDS011;38382;53.160;7.026;2023-02-28T16:04:53;8.85;;;6.00;;
52470;SDS011;38382;53.160;7.026;2023-02-28T16:07:21;9.80;;;6.55;;
52470;SDS011;38382;53.160;7.026;2023-02-28T16:09:47;10.50;;;6.47;;
52470;SDS011;38382;53.160;7.026;2023-02-28T16:12:13;10.68;;;7.10;;
52470;SDS011;38382;53.160;7.026;2023-02-28T16:14:39;13.43;;;8.27;;
52470;SDS011;38382;53.160;7.026;2023-02-28T16:17:07;14.40;;;8.40;;
52470;SDS011;38382;53.160;7.026;2023-02-28T16:19:42;10.35;;;8.10;;
52470;SDS011;38382;53.160;7.026;2023-02-28T16:22:08;12.93;;;8.00;;
52470;SDS011;38382;53.160;7.026;2023-02-28T16:24:34;13.15;;;8.63;;
52470;SDS011;38382;53.160;7.026;2023-02-28T16:27:00;12.13;;;8.00;;
52470;SDS011;38382;53.160;7.026;2023-02-28T16:29:27;14.93;;;8.18;;
52470;SDS011;38382;53.160;7.026;2023-02-28T16:31:58;11.43;;;7.93;;
52470;SDS011;38382;53.160;7.026;2023-02-28T16:34:25;11.73;;;8.10;;
52470;SDS011;38382;53.160;7.026;2023-02-28T16:36:51;11.52;;;8.77;;
52470;SDS011;38382;53.160;7.026;2023-02-28T16:39:17;11.85;;;8.75;;
52470;SDS011;38382;53.160;7.026;2023-02-28T16:41:45;13.15;;;8.40;;
52470;SDS011;38382;53.160;7.026;2023-02-28T16:44:46;11.57;;;8.40;;
52470;SDS011;38382;53.160;7.026;2023-02-28T16:47:05;12.40;;;8.35;;
52470;SDS011;38382;53.160;7.026;2023-02-28T16:49:31;12.50;;;8.45;;
52470;SDS011;38382;53.160;7.026;2023-02-28T16:51:57;12.15;;;8.70;;
52470;SDS011;38382;53.160;7.026;2023-02-28T16:54:23;15.18;;;9.32;;
52470;SDS011;38382;53.160;7.026;2023-02-28T16:56:48;16.25;;;8.60;;
52470;SDS011;38382;53.160;7.026;2023-02-28T16:59:18;10.70;;;8.30;;
52470;SDS011;38382;53.160;7.026;2023-02-28T17:01:48;11.27;;;8.45;;
52470;SDS011;38382;53.160;7.026;2023-02-28T17:04:14;14.45;;;8.85;;
52470;SDS011;38382;53.160;7.026;2023-02-28T17:06:40;12.43;;;9.15;;
52470;SDS011;38382;53.160;7.026;2023-02-28T17:09:08;14.00;;;8.95;;
52470;SDS011;38382;53.160;7.026;2023-02-28T17:11:41;12.77;;;9.52;;
52470;SDS011;38382;53.160;7.026;2023-02-28T17:14:07;14.45;;;9.75;;
52470;SDS011;38382;53.160;7.026;2023-02-28T17:16:33;13.95;;;9.25;;
52470;SDS011;38382;53.160;7.026;2023-02-28T17:19:02;13.68;;;9.35;;
52470;SDS011;38382;53.160;7.026;2023-02-28T17:21:30;17.08;;;9.30;;
52470;SDS011;38382;53.160;7.026;2023-02-28T17:23:58;15.13;;;8.80;;
52470;SDS011;38382;53.160;7.026;2023-02-28T17:26:23;13.63;;;9.30;;
52470;SDS011;38382;53.160;7.026;2023-02-28T17:28:53;13.20;;;8.82;;
52470;SDS011;38382;53.160;7.026;2023-02-28T17:31:23;13.20;;;9.35;;
52470;SDS011;38382;53.160;7.026;2023-02-28T17:33:50;14.15;;;9.88;;